sensor_id;sensor_type;location;lat;lon;timestamp;P1;durP1;ratioP1;P2;durP2;ratioP2
19038;SDS011;9652;49.014;12.052;2023-04-01T00:02:14;2.10;;;1.77;;
19038;SDS011;9652;49.014;12.052;2023-04-01T00:04:41;1.87;;;1.73;;
19038;SDS011;9652;49.014;12.052;2023-04-01T00:07:10;2.67;;;1.80;;
19038;SDS011;9652;49.014;12.052;2023-04-01T00:09:38;1.70;;;1.60;;
19038;SDS011;9652;49.014;12.052;2023-04-01T00:12:05;2.03;;;1.80;;
19038;SDS011;9652;49.014;12.052;2023-04-01T00:14:32;1.70;;;1.43;;
19038;SDS011;9652;49.014;12.052;2023-04-01T00:17:03;1.60;;;1.50;;
19038;SDS011;9652;49.014;12.052;2023-04-01T00:19:30;5.17;;;1.93;;
19038;SDS011;9652;49.014;12.052;2023-04-01T00:21:58;1.97;;;1.87;;
19038;SDS011;9652;49.014;12.052;2023-04-01T00:24:25;1.70;;;1.53;;
19038;SDS011;9652;49.014;12.052;2023-04-01T00:26:52;2.83;;;1.80;;
19038;SDS011;9652;49.014;12.052;2023-04-01T00:29:19;1.73;;;1.63;;
19038;SDS011;9652;49.014;12.052;2023-04-01T00:31:46;1.83;;;1.73;;
19038;SDS011;9652;49.014;12.052;2023-04-01T00:34:15;2.30;;;1.87;;
19038;SDS011;9652;49.014;12.052;2023-04-01T00:36:42;1.83;;;1.73;;
19038;SDS011;9652;49.014;12.052;2023-04-01T00:39:09;1.77;;;1.50;;
19038;SDS011;9652;49.014;12.052;2023-04-01T00:41:36;1.63;;;1.53;;
19038;SDS011;9652;49.014;12.052;2023-04-01T00:44:15;1.70;;;1.60;;
19038;SDS011;9652;49.014;12.052;2023-04-01T00:46:45;2.20;;;1.77;;
19038;SDS011;9652;49.014;12.052;2023-04-01T00:49:13;1.50;;;1.40;;
19038;SDS011;9652;49.014;12.052;2023-04-01T00:51:45;3.23;;;1.93;;
19038;SDS011;9652;49.014;12.052;2023-04-01T00:54:16;1.70;;;1.60;;
19038;SDS011;9652;49.014;12.052;2023-04-01T00:56:46;1.57;;;1.47;;
19038;SDS011;9652;49.014;12.052;2023-04-01T00:59:22;2.23;;;2.13;;
19038;SDS011;9652;49.014;12.052;2023-04-01T01:01:54;3.13;;;1.73;;
19038;SDS011;9652;49.014;12.052;2023-04-01T01:04:24;1.93;;;1.83;;
19038;SDS011;9652;49.014;12.052;2023-04-01T01:06:56;1.77;;;1.67;;
19038;SDS011;9652;49.014;12.052;2023-04-01T01:09:38;2.00;;;1.80;;
19038;SDS011;9652;49.014;12.052;2023-04-01T01:12:17;1.57;;;1.57;;
19038;SDS011;9652;49.014;12.052;2023-04-01T01:14:55;1.70;;;1.60;;
19038;SDS011;9652;49.014;12.052;2023-04-01T01:17:38;1.47;;;1.43;;
19038;SDS011;9652;49.014;12.052;2023-04-01T01:26:53;4.97;;;1.67;;
19038;SDS011;9652;49.014;12.052;2023-04-01T01:29:32;1.47;;;1.47;;
19038;SDS011;9652;49.014;12.052;2023-04-01T01:32:49;1.70;;;1.60;;
19038;SDS011;9652;49.014;12.052;2023-04-01T01:35:47;1.80;;;1.70;;
19038;SDS011;9652;49.014;12.052;2023-04-01T01:38:21;1.70;;;1.60;;
19038;SDS011;9652;49.014;12.052;2023-04-01T01:41:00;2.03;;;1.80;;
19038;SDS011;9652;49.014;12.052;2023-04-01T01:43:33;2.53;;;1.50;;
19038;SDS011;9652;49.014;12.052;2023-04-01T01:46:05;1.10;;;1.10;;
19038;SDS011;9652;49.014;12.052;2023-04-01T01:48:38;2.30;;;2.10;;
19038;SDS011;9652;49.014;12.052;2023-04-01T01:51:09;1.23;;;1.20;;
19038;SDS011;9652;49.014;12.052;2023-04-01T01:53:37;1.57;;;1.47;;
19038;SDS011;9652;49.014;12.052;2023-04-01T01:56:05;1.70;;;1.60;;
19038;SDS011;9652;49.014;12.052;2023-04-01T01:58:37;1.50;;;1.40;;
19038;SDS011;9652;49.014;12.052;2023-04-01T02:01:13;1.07;;;1.07;;
19038;SDS011;9652;49.014;12.052;2023-04-01T02:03:45;1.20;;;1.20;;
19038;SDS011;9652;49.014;12.052;2023-04-01T02:06:17;1.63;;;1.53;;
19038;SDS011;9652;49.014;12.052;2023-04-01T02:08:48;1.77;;;1.67;;
19038;SDS011;9652;49.014;12.052;2023-04-01T02:11:21;1.47;;;1.47;;
19038;SDS011;9652;49.014;12.052;2023-04-01T02:13:54;1.77;;;1.67;;
19038;SDS011;9652;49.014;12.052;2023-04-01T02:16:27;2.00;;;1.50;;
19038;SDS011;9652;49.014;12.052;2023-04-01T02:19:02;1.00;;;1.00;;
19038;SDS011;9652;49.014;12.052;2023-04-01T02:21:34;1.43;;;1.40;;
19038;SDS011;9652;49.014;12.052;2023-04-01T02:24:03;3.63;;;1.67;;
19038;SDS011;9652;49.014;12.052;2023-04-01T02:26:36;1.40;;;1.40;;
19038;SDS011;9652;49.014;12.052;2023-04-01T02:29:03;1.87;;;1.70;;
19038;SDS011;9652;49.014;12.052;2023-04-01T02:31:33;1.80;;;1.70;;
19038;SDS011;9652;49.014;12.052;2023-04-01T02:34:01;1.43;;;1.43;;
19038;SDS011;9652;49.014;12.052;2023-04-01T02:36:30;1.90;;;1.50;;
19038;SDS011;9652;49.014;12.052;2023-04-01T02:38:59;1.20;;;1.20;;
19038;SDS011;9652;49.014;12.052;2023-04-01T02:41:29;1.87;;;1.73;;
19038;SDS011;9652;49.014;12.052;2023-04-01T02:43:56;2.07;;;1.63;;
19038;SDS011;9652;49.014;12.052;2023-04-01T02:46:24;1.60;;;1.50;;
19038;SDS011;9652;49.014;12.052;2023-04-01T02:48:51;1.60;;;1.50;;
19038;SDS011;9652;49.014;12.052;2023-04-01T02:51:19;1.47;;;1.40;;
19038;SDS011;9652;49.014;12.052;2023-04-01T02:53:46;1.70;;;1.60;;
19038;SDS011;9652;49.014;12.052;2023-04-01T02:56:14;1.77;;;1.43;;
19038;SDS011;9652;49.014;12.052;2023-04-01T02:58:42;3.83;;;1.70;;
19038;SDS011;9652;49.014;12.052;2023-04-01T03:01:09;1.60;;;1.60;;
19038;SDS011;9652;49.014;12.052;2023-04-01T03:03:36;2.03;;;1.43;;
19038;SDS011;9652;49.014;12.052;2023-04-01T03:06:04;1.80;;;1.70;;
19038;SDS011;9652;49.014;12.052;2023-04-01T03:08:33;1.57;;;1.57;;
19038;SDS011;9652;49.014;12.052;2023-04-01T03:11:00;1.57;;;1.57;;
19038;SDS011;9652;49.014;12.052;2023-04-01T03:13:29;2.00;;;1.90;;
19038;SDS011;9652;49.014;12.052;2023-04-01T03:15:56;1.60;;;1.50;;
19038;SDS011;9652;49.014;12.052;2023-04-01T03:18:24;2.83;;;1.50;;
19038;SDS011;9652;49.014;12.052;2023-04-01T03:20:51;1.70;;;1.60;;
19038;SDS011;9652;49.014;12.052;2023-04-01T03:23:18;1.23;;;1.23;;
19038;SDS011;9652;49.014;12.052;2023-04-01T03:25:46;1.60;;;1.50;;
19038;SDS011;9652;49.014;12.052;2023-04-01T03:28:14;1.87;;;1.40;;
19038;SDS011;9652;49.014;12.052;2023-04-01T03:30:43;1.93;;;1.83;;
19038;SDS011;9652;49.014;12.052;2023-04-01T03:33:10;1.70;;;1.60;;
19038;SDS011;9652;49.014;12.052;2023-04-01T03:35:38;1.83;;;1.70;;
19038;SDS011;9652;49.014;12.052;2023-04-01T03:38:05;2.03;;;1.93;;
19038;SDS011;9652;49.014;12.052;2023-04-01T03:40:33;1.50;;;1.50;;
19038;SDS011;9652;49.014;12.052;2023-04-01T03:43:02;1.50;;;1.40;;
19038;SDS011;9652;49.014;12.052;2023-04-01T03:45:33;1.70;;;1.50;;
19038;SDS011;9652;49.014;12.052;2023-04-01T03:48:02;2.67;;;2.03;;
19038;SDS011;9652;49.014;12.052;2023-04-01T03:50:29;1.50;;;1.50;;
19038;SDS011;9652;49.014;12.052;2023-04-01T03:52:56;2.03;;;1.93;;
19038;SDS011;9652;49.014;12.052;2023-04-01T03:55:24;1.53;;;1.50;;
19038;SDS011;9652;49.014;12.052;2023-04-01T03:57:51;1.43;;;1.40;;
19038;SDS011;9652;49.014;12.052;2023-04-01T04:00:18;2.07;;;1.97;;
19038;SDS011;9652;49.014;12.052;2023-04-01T04:02:51;1.90;;;1.70;;
19038;SDS011;9652;49.014;12.052;2023-04-01T04:05:26;2.40;;;2.10;;
19038;SDS011;9652;49.014;12.052;2023-04-01T04:07:54;1.90;;;1.80;;
19038;SDS011;9652;49.014;12.052;2023-04-01T04:10:21;2.00;;;1.90;;
19038;SDS011;9652;49.014;12.052;2023-04-01T04:12:50;1.60;;;1.60;;
19038;SDS011;9652;49.014;12.052;2023-04-01T04:15:20;2.00;;;1.73;;
19038;SDS011;9652;49.014;12.052;2023-04-01T04:17:48;1.60;;;1.50;;
19038;SDS011;9652;49.014;12.052;2023-04-01T04:20:15;1.70;;;1.70;;
19038;SDS011;9652;49.014;12.052;2023-04-01T04:22:44;1.97;;;1.87;;
19038;SDS011;9652;49.014;12.052;2023-04-01T04:25:12;2.10;;;1.50;;
19038;SDS011;9652;49.014;12.052;2023-04-01T04:27:39;2.03;;;1.50;;
19038;SDS011;9652;49.014;12.052;2023-04-01T04:30:08;2.30;;;1.60;;
19038;SDS011;9652;49.014;12.052;2023-04-01T04:32:36;2.03;;;1.93;;
19038;SDS011;9652;49.014;12.052;2023-04-01T04:35:04;4.33;;;1.73;;
19038;SDS011;9652;49.014;12.052;2023-04-01T04:37:33;1.70;;;1.60;;
19038;SDS011;9652;49.014;12.052;2023-04-01T04:40:02;1.57;;;1.57;;
19038;SDS011;9652;49.014;12.052;2023-04-01T04:42:30;2.10;;;2.00;;
19038;SDS011;9652;49.014;12.052;2023-04-01T04:45:04;1.37;;;1.37;;
19038;SDS011;9652;49.014;12.052;2023-04-01T04:47:32;1.90;;;1.80;;
19038;SDS011;9652;49.014;12.052;2023-04-01T04:49:59;2.00;;;1.90;;
19038;SDS011;9652;49.014;12.052;2023-04-01T04:52:27;1.90;;;1.80;;
19038;SDS011;9652;49.014;12.052;2023-04-01T04:54:54;2.10;;;2.00;;
19038;SDS011;9652;49.014;12.052;2023-04-01T04:57:23;1.93;;;1.83;;
19038;SDS011;9652;49.014;12.052;2023-04-01T04:59:53;1.70;;;1.60;;
19038;SDS011;9652;49.014;12.052;2023-04-01T05:02:32;2.80;;;2.00;;
19038;SDS011;9652;49.014;12.052;2023-04-01T05:04:59;2.17;;;2.00;;
19038;SDS011;9652;49.014;12.052;2023-04-01T05:07:27;2.17;;;2.07;;
19038;SDS011;9652;49.014;12.052;2023-04-01T05:09:54;3.17;;;2.00;;
19038;SDS011;9652;49.014;12.052;2023-04-01T05:12:23;2.10;;;2.00;;
19038;SDS011;9652;49.014;12.052;2023-04-01T05:14:55;2.03;;;1.93;;
19038;SDS011;9652;49.014;12.052;2023-04-01T05:17:22;1.97;;;1.87;;
19038;SDS011;9652;49.014;12.052;2023-04-01T05:19:49;1.80;;;1.80;;
19038;SDS011;9652;49.014;12.052;2023-04-01T05:22:17;1.90;;;1.80;;
19038;SDS011;9652;49.014;12.052;2023-04-01T05:24:44;2.10;;;2.00;;
19038;SDS011;9652;49.014;12.052;2023-04-01T05:27:11;2.00;;;1.83;;
19038;SDS011;9652;49.014;12.052;2023-04-01T05:29:41;4.70;;;1.83;;
19038;SDS011;9652;49.014;12.052;2023-04-01T05:32:25;2.07;;;1.97;;
19038;SDS011;9652;49.014;12.052;2023-04-01T05:34:52;1.50;;;1.40;;
19038;SDS011;9652;49.014;12.052;2023-04-01T05:37:20;1.43;;;1.33;;
19038;SDS011;9652;49.014;12.052;2023-04-01T05:39:48;1.97;;;1.60;;
19038;SDS011;9652;49.014;12.052;2023-04-01T05:42:16;1.30;;;1.20;;
19038;SDS011;9652;49.014;12.052;2023-04-01T05:44:45;1.40;;;1.30;;
19038;SDS011;9652;49.014;12.052;2023-04-01T05:47:47;1.60;;;1.60;;
19038;SDS011;9652;49.014;12.052;2023-04-01T05:50:16;1.70;;;1.60;;
19038;SDS011;9652;49.014;12.052;2023-04-01T05:52:44;1.47;;;1.43;;
19038;SDS011;9652;49.014;12.052;2023-04-01T05:55:11;2.00;;;1.80;;
19038;SDS011;9652;49.014;12.052;2023-04-01T05:57:38;0.97;;;0.97;;
19038;SDS011;9652;49.014;12.052;2023-04-01T06:00:07;1.30;;;1.30;;
19038;SDS011;9652;49.014;12.052;2023-04-01T06:02:39;1.50;;;1.40;;
19038;SDS011;9652;49.014;12.052;2023-04-01T06:05:12;1.27;;;1.27;;
19038;SDS011;9652;49.014;12.052;2023-04-01T06:07:44;1.50;;;1.40;;
19038;SDS011;9652;49.014;12.052;2023-04-01T06:10:14;2.63;;;1.30;;
19038;SDS011;9652;49.014;12.052;2023-04-01T06:12:50;1.00;;;1.00;;
19038;SDS011;9652;49.014;12.052;2023-04-01T06:15:32;1.47;;;1.37;;
19038;SDS011;9652;49.014;12.052;2023-04-01T06:21:44;1.70;;;1.20;;
19038;SDS011;9652;49.014;12.052;2023-04-01T06:24:55;1.07;;;1.07;;
19038;SDS011;9652;49.014;12.052;2023-04-01T06:28:04;0.90;;;0.90;;
19038;SDS011;9652;49.014;12.052;2023-04-01T06:31:05;1.17;;;1.17;;
19038;SDS011;9652;49.014;12.052;2023-04-01T06:36:52;1.20;;;1.20;;
19038;SDS011;9652;49.014;12.052;2023-04-01T06:39:50;1.37;;;1.27;;
19038;SDS011;9652;49.014;12.052;2023-04-01T06:42:38;1.13;;;1.07;;
19038;SDS011;9652;49.014;12.052;2023-04-01T06:45:40;1.13;;;1.13;;
19038;SDS011;9652;49.014;12.052;2023-04-01T06:48:41;1.40;;;1.30;;
19038;SDS011;9652;49.014;12.052;2023-04-01T06:52:11;1.27;;;1.27;;
19038;SDS011;9652;49.014;12.052;2023-04-01T06:55:14;1.33;;;1.33;;
19038;SDS011;9652;49.014;12.052;2023-04-01T06:58:11;1.00;;;1.00;;
19038;SDS011;9652;49.014;12.052;2023-04-01T07:00:48;1.20;;;1.20;;
19038;SDS011;9652;49.014;12.052;2023-04-01T07:03:22;1.10;;;1.10;;
19038;SDS011;9652;49.014;12.052;2023-04-01T07:06:02;2.27;;;1.43;;
19038;SDS011;9652;49.014;12.052;2023-04-01T07:08:38;1.30;;;1.20;;
19038;SDS011;9652;49.014;12.052;2023-04-01T07:11:10;1.37;;;1.30;;
19038;SDS011;9652;49.014;12.052;2023-04-01T07:14:13;0.90;;;0.90;;
19038;SDS011;9652;49.014;12.052;2023-04-01T07:16:48;1.20;;;1.20;;
19038;SDS011;9652;49.014;12.052;2023-04-01T07:19:24;1.23;;;1.23;;
19038;SDS011;9652;49.014;12.052;2023-04-01T07:22:05;1.13;;;1.03;;
19038;SDS011;9652;49.014;12.052;2023-04-01T07:25:20;1.00;;;1.00;;
19038;SDS011;9652;49.014;12.052;2023-04-01T07:28:12;1.20;;;1.10;;
19038;SDS011;9652;49.014;12.052;2023-04-01T07:30:48;2.80;;;1.10;;
19038;SDS011;9652;49.014;12.052;2023-04-01T07:33:33;1.20;;;1.20;;
19038;SDS011;9652;49.014;12.052;2023-04-01T07:36:08;1.00;;;1.00;;
19038;SDS011;9652;49.014;12.052;2023-04-01T07:38:47;1.30;;;1.30;;
19038;SDS011;9652;49.014;12.052;2023-04-01T07:41:48;1.30;;;1.20;;
19038;SDS011;9652;49.014;12.052;2023-04-01T07:44:28;0.90;;;0.90;;
19038;SDS011;9652;49.014;12.052;2023-04-01T07:47:12;1.07;;;1.00;;
19038;SDS011;9652;49.014;12.052;2023-04-01T07:50:02;1.07;;;1.00;;
19038;SDS011;9652;49.014;12.052;2023-04-01T07:52:44;1.07;;;0.97;;
19038;SDS011;9652;49.014;12.052;2023-04-01T07:55:30;1.07;;;1.00;;
19038;SDS011;9652;49.014;12.052;2023-04-01T07:58:08;1.20;;;1.13;;
19038;SDS011;9652;49.014;12.052;2023-04-01T08:00:48;0.90;;;0.90;;
19038;SDS011;9652;49.014;12.052;2023-04-01T08:03:31;1.13;;;1.13;;
19038;SDS011;9652;49.014;12.052;2023-04-01T08:06:14;0.80;;;0.80;;
19038;SDS011;9652;49.014;12.052;2023-04-01T08:08:55;0.80;;;0.80;;
19038;SDS011;9652;49.014;12.052;2023-04-01T08:11:56;1.73;;;0.90;;
19038;SDS011;9652;49.014;12.052;2023-04-01T08:15:19;1.07;;;0.73;;
19038;SDS011;9652;49.014;12.052;2023-04-01T08:18:11;1.30;;;0.80;;
19038;SDS011;9652;49.014;12.052;2023-04-01T08:20:56;1.03;;;0.80;;
19038;SDS011;9652;49.014;12.052;2023-04-01T08:23:28;2.53;;;1.00;;
19038;SDS011;9652;49.014;12.052;2023-04-01T08:26:00;1.83;;;0.90;;
19038;SDS011;9652;49.014;12.052;2023-04-01T08:28:41;1.13;;;0.90;;
19038;SDS011;9652;49.014;12.052;2023-04-01T08:31:14;1.47;;;1.27;;
19038;SDS011;9652;49.014;12.052;2023-04-01T08:33:49;1.80;;;1.00;;
19038;SDS011;9652;49.014;12.052;2023-04-01T08:36:22;0.93;;;0.93;;
19038;SDS011;9652;49.014;12.052;2023-04-01T08:39:14;0.80;;;0.80;;
19038;SDS011;9652;49.014;12.052;2023-04-01T08:45:17;3.27;;;0.77;;
19038;SDS011;9652;49.014;12.052;2023-04-01T08:51:02;1.43;;;1.00;;
19038;SDS011;9652;49.014;12.052;2023-04-01T08:56:58;0.80;;;0.80;;
19038;SDS011;9652;49.014;12.052;2023-04-01T08:59:38;0.70;;;0.70;;
19038;SDS011;9652;49.014;12.052;2023-04-01T09:02:56;0.73;;;0.73;;
19038;SDS011;9652;49.014;12.052;2023-04-01T09:06:06;0.80;;;0.80;;
19038;SDS011;9652;49.014;12.052;2023-04-01T09:15:20;0.70;;;0.70;;
19038;SDS011;9652;49.014;12.052;2023-04-01T09:18:25;0.73;;;0.70;;
19038;SDS011;9652;49.014;12.052;2023-04-01T09:24:39;1.07;;;0.70;;
19038;SDS011;9652;49.014;12.052;2023-04-01T09:27:25;2.60;;;0.70;;
19038;SDS011;9652;49.014;12.052;2023-04-01T09:33:32;1.53;;;0.60;;
19038;SDS011;9652;49.014;12.052;2023-04-01T09:36:57;0.83;;;0.60;;
19038;SDS011;9652;49.014;12.052;2023-04-01T09:39:47;1.77;;;0.67;;
19038;SDS011;9652;49.014;12.052;2023-04-01T09:42:43;0.60;;;0.60;;
19038;SDS011;9652;49.014;12.052;2023-04-01T09:45:30;0.90;;;0.90;;
19038;SDS011;9652;49.014;12.052;2023-04-01T09:48:19;0.80;;;0.70;;
19038;SDS011;9652;49.014;12.052;2023-04-01T09:51:10;1.17;;;0.57;;
19038;SDS011;9652;49.014;12.052;2023-04-01T09:53:56;0.90;;;0.73;;
19038;SDS011;9652;49.014;12.052;2023-04-01T09:56:52;0.80;;;0.60;;
19038;SDS011;9652;49.014;12.052;2023-04-01T10:00:21;0.70;;;0.70;;
19038;SDS011;9652;49.014;12.052;2023-04-01T10:03:43;0.60;;;0.60;;
19038;SDS011;9652;49.014;12.052;2023-04-01T10:06:48;0.60;;;0.57;;
19038;SDS011;9652;49.014;12.052;2023-04-01T10:09:58;2.23;;;0.90;;
19038;SDS011;9652;49.014;12.052;2023-04-01T10:19:47;0.70;;;0.70;;
19038;SDS011;9652;49.014;12.052;2023-04-01T10:22:54;1.20;;;0.60;;
19038;SDS011;9652;49.014;12.052;2023-04-01T10:36:20;1.00;;;0.90;;
19038;SDS011;9652;49.014;12.052;2023-04-01T10:39:19;1.03;;;0.63;;
19038;SDS011;9652;49.014;12.052;2023-04-01T10:42:32;0.67;;;0.67;;
19038;SDS011;9652;49.014;12.052;2023-04-01T10:52:14;0.40;;;0.40;;
19038;SDS011;9652;49.014;12.052;2023-04-01T10:55:46;0.70;;;0.70;;
19038;SDS011;9652;49.014;12.052;2023-04-01T10:59:17;0.50;;;0.50;;
19038;SDS011;9652;49.014;12.052;2023-04-01T11:02:56;0.60;;;0.60;;
19038;SDS011;9652;49.014;12.052;2023-04-01T11:13:49;0.60;;;0.60;;
19038;SDS011;9652;49.014;12.052;2023-04-01T11:17:10;1.50;;;0.60;;
19038;SDS011;9652;49.014;12.052;2023-04-01T11:20:17;0.63;;;0.63;;
19038;SDS011;9652;49.014;12.052;2023-04-01T11:23:38;0.53;;;0.53;;
19038;SDS011;9652;49.014;12.052;2023-04-01T11:26:22;0.70;;;0.70;;
19038;SDS011;9652;49.014;12.052;2023-04-01T11:29:41;0.57;;;0.50;;
19038;SDS011;9652;49.014;12.052;2023-04-01T11:32:35;0.67;;;0.67;;
19038;SDS011;9652;49.014;12.052;2023-04-01T11:35:31;0.70;;;0.70;;
19038;SDS011;9652;49.014;12.052;2023-04-01T11:38:20;0.70;;;0.70;;
19038;SDS011;9652;49.014;12.052;2023-04-01T11:40:59;1.13;;;1.03;;
19038;SDS011;9652;49.014;12.052;2023-04-01T11:44:09;0.83;;;0.83;;
19038;SDS011;9652;49.014;12.052;2023-04-01T11:47:15;0.90;;;0.90;;
19038;SDS011;9652;49.014;12.052;2023-04-01T11:50:15;0.97;;;0.90;;
19038;SDS011;9652;49.014;12.052;2023-04-01T11:52:59;0.90;;;0.90;;
19038;SDS011;9652;49.014;12.052;2023-04-01T11:55:40;1.13;;;1.10;;
19038;SDS011;9652;49.014;12.052;2023-04-01T11:58:47;0.90;;;0.90;;
19038;SDS011;9652;49.014;12.052;2023-04-01T12:01:51;1.00;;;1.00;;
19038;SDS011;9652;49.014;12.052;2023-04-01T12:07:36;1.17;;;0.90;;
19038;SDS011;9652;49.014;12.052;2023-04-01T12:10:29;0.90;;;0.90;;
19038;SDS011;9652;49.014;12.052;2023-04-01T12:13:09;1.00;;;1.00;;
19038;SDS011;9652;49.014;12.052;2023-04-01T12:15:59;1.17;;;1.10;;
19038;SDS011;9652;49.014;12.052;2023-04-01T12:18:46;0.90;;;0.90;;
19038;SDS011;9652;49.014;12.052;2023-04-01T12:21:23;0.97;;;0.97;;
19038;SDS011;9652;49.014;12.052;2023-04-01T12:24:03;1.10;;;1.10;;
19038;SDS011;9652;49.014;12.052;2023-04-01T12:27:20;0.90;;;0.90;;
19038;SDS011;9652;49.014;12.052;2023-04-01T12:33:21;1.00;;;1.00;;
19038;SDS011;9652;49.014;12.052;2023-04-01T12:36:05;1.20;;;1.13;;
19038;SDS011;9652;49.014;12.052;2023-04-01T12:38:48;1.03;;;1.03;;
19038;SDS011;9652;49.014;12.052;2023-04-01T12:41:46;1.03;;;1.03;;
19038;SDS011;9652;49.014;12.052;2023-04-01T12:44:29;0.90;;;0.90;;
19038;SDS011;9652;49.014;12.052;2023-04-01T12:47:26;1.00;;;1.00;;
19038;SDS011;9652;49.014;12.052;2023-04-01T12:51:03;1.07;;;1.07;;
19038;SDS011;9652;49.014;12.052;2023-04-01T12:54:14;0.93;;;0.90;;
19038;SDS011;9652;49.014;12.052;2023-04-01T12:57:21;1.10;;;1.10;;
19038;SDS011;9652;49.014;12.052;2023-04-01T13:00:30;0.93;;;0.93;;
19038;SDS011;9652;49.014;12.052;2023-04-01T13:03:37;0.90;;;0.90;;
19038;SDS011;9652;49.014;12.052;2023-04-01T13:06:59;0.90;;;0.90;;
19038;SDS011;9652;49.014;12.052;2023-04-01T13:09:51;0.80;;;0.80;;
19038;SDS011;9652;49.014;12.052;2023-04-01T13:12:36;1.07;;;1.07;;
19038;SDS011;9652;49.014;12.052;2023-04-01T13:15:26;1.07;;;1.07;;
19038;SDS011;9652;49.014;12.052;2023-04-01T13:18:05;0.90;;;0.90;;
19038;SDS011;9652;49.014;12.052;2023-04-01T13:20:48;1.47;;;1.10;;
19038;SDS011;9652;49.014;12.052;2023-04-01T13:23:32;1.00;;;1.00;;
19038;SDS011;9652;49.014;12.052;2023-04-01T13:26:18;1.20;;;1.20;;
19038;SDS011;9652;49.014;12.052;2023-04-01T13:28:56;1.13;;;1.13;;
19038;SDS011;9652;49.014;12.052;2023-04-01T13:31:38;0.90;;;0.90;;
19038;SDS011;9652;49.014;12.052;2023-04-01T13:34:31;1.03;;;1.03;;
19038;SDS011;9652;49.014;12.052;2023-04-01T13:37:16;1.40;;;1.30;;
19038;SDS011;9652;49.014;12.052;2023-04-01T13:40:11;1.10;;;1.10;;
19038;SDS011;9652;49.014;12.052;2023-04-01T13:43:01;1.03;;;1.03;;
19038;SDS011;9652;49.014;12.052;2023-04-01T13:45:41;1.10;;;1.10;;
19038;SDS011;9652;49.014;12.052;2023-04-01T13:48:28;1.30;;;1.20;;
19038;SDS011;9652;49.014;12.052;2023-04-01T13:51:20;1.10;;;1.10;;
19038;SDS011;9652;49.014;12.052;2023-04-01T13:54:31;1.10;;;1.10;;
19038;SDS011;9652;49.014;12.052;2023-04-01T13:57:45;1.27;;;1.20;;
19038;SDS011;9652;49.014;12.052;2023-04-01T14:00:33;1.10;;;1.10;;
19038;SDS011;9652;49.014;12.052;2023-04-01T14:03:26;1.20;;;1.20;;
19038;SDS011;9652;49.014;12.052;2023-04-01T14:06:10;1.17;;;1.17;;
19038;SDS011;9652;49.014;12.052;2023-04-01T14:11:56;1.70;;;1.60;;
19038;SDS011;9652;49.014;12.052;2023-04-01T14:14:36;1.30;;;1.03;;
19038;SDS011;9652;49.014;12.052;2023-04-01T14:17:24;1.03;;;1.03;;
19038;SDS011;9652;49.014;12.052;2023-04-01T14:20:21;1.20;;;1.20;;
19038;SDS011;9652;49.014;12.052;2023-04-01T14:26:35;1.20;;;1.20;;
19038;SDS011;9652;49.014;12.052;2023-04-01T14:29:30;1.67;;;1.57;;
19038;SDS011;9652;49.014;12.052;2023-04-01T14:32:13;1.60;;;1.47;;
19038;SDS011;9652;49.014;12.052;2023-04-01T14:34:55;1.33;;;1.33;;
19038;SDS011;9652;49.014;12.052;2023-04-01T14:41:00;1.63;;;1.20;;
19038;SDS011;9652;49.014;12.052;2023-04-01T14:43:53;1.10;;;1.00;;
19038;SDS011;9652;49.014;12.052;2023-04-01T14:46:53;1.00;;;1.00;;
19038;SDS011;9652;49.014;12.052;2023-04-01T14:49:47;1.13;;;1.13;;
19038;SDS011;9652;49.014;12.052;2023-04-01T14:52:22;1.03;;;1.03;;
19038;SDS011;9652;49.014;12.052;2023-04-01T14:54:54;1.27;;;1.27;;
19038;SDS011;9652;49.014;12.052;2023-04-01T14:57:24;1.10;;;1.10;;
19038;SDS011;9652;49.014;12.052;2023-04-01T14:59:59;1.20;;;1.20;;
19038;SDS011;9652;49.014;12.052;2023-04-01T15:02:45;1.13;;;1.10;;
19038;SDS011;9652;49.014;12.052;2023-04-01T15:05:32;1.23;;;1.20;;
19038;SDS011;9652;49.014;12.052;2023-04-01T15:08:17;2.27;;;1.10;;
19038;SDS011;9652;49.014;12.052;2023-04-01T15:10:59;1.50;;;1.40;;
19038;SDS011;9652;49.014;12.052;2023-04-01T15:14:12;1.17;;;1.17;;
19038;SDS011;9652;49.014;12.052;2023-04-01T15:23:31;1.43;;;1.30;;
19038;SDS011;9652;49.014;12.052;2023-04-01T15:29:21;1.10;;;1.10;;
19038;SDS011;9652;49.014;12.052;2023-04-01T15:32:10;1.00;;;1.00;;
19038;SDS011;9652;49.014;12.052;2023-04-01T15:34:51;1.10;;;1.10;;
19038;SDS011;9652;49.014;12.052;2023-04-01T15:37:29;1.40;;;1.30;;
19038;SDS011;9652;49.014;12.052;2023-04-01T15:40:14;1.00;;;1.00;;
19038;SDS011;9652;49.014;12.052;2023-04-01T15:42:52;1.20;;;1.20;;
19038;SDS011;9652;49.014;12.052;2023-04-01T15:45:40;0.80;;;0.80;;
19038;SDS011;9652;49.014;12.052;2023-04-01T15:48:27;1.07;;;1.07;;
19038;SDS011;9652;49.014;12.052;2023-04-01T15:51:20;1.17;;;1.17;;
19038;SDS011;9652;49.014;12.052;2023-04-01T15:54:19;1.20;;;1.20;;
19038;SDS011;9652;49.014;12.052;2023-04-01T15:57:03;1.30;;;1.30;;
19038;SDS011;9652;49.014;12.052;2023-04-01T16:00:04;0.90;;;0.90;;
19038;SDS011;9652;49.014;12.052;2023-04-01T16:02:52;1.27;;;1.27;;
19038;SDS011;9652;49.014;12.052;2023-04-01T16:05:42;1.20;;;1.10;;
19038;SDS011;9652;49.014;12.052;2023-04-01T16:11:37;1.50;;;1.40;;
19038;SDS011;9652;49.014;12.052;2023-04-01T16:14:24;1.20;;;1.20;;
19038;SDS011;9652;49.014;12.052;2023-04-01T16:17:05;1.10;;;1.10;;
19038;SDS011;9652;49.014;12.052;2023-04-01T16:19:58;0.90;;;0.90;;
19038;SDS011;9652;49.014;12.052;2023-04-01T16:22:33;1.27;;;1.20;;
19038;SDS011;9652;49.014;12.052;2023-04-01T16:25:17;1.40;;;1.30;;
19038;SDS011;9652;49.014;12.052;2023-04-01T16:28:16;1.33;;;1.23;;
19038;SDS011;9652;49.014;12.052;2023-04-01T16:30:55;1.30;;;1.30;;
19038;SDS011;9652;49.014;12.052;2023-04-01T16:33:32;2.13;;;1.27;;
19038;SDS011;9652;49.014;12.052;2023-04-01T16:36:13;1.13;;;1.13;;
19038;SDS011;9652;49.014;12.052;2023-04-01T16:38:55;1.00;;;1.00;;
19038;SDS011;9652;49.014;12.052;2023-04-01T16:41:51;1.20;;;1.20;;
19038;SDS011;9652;49.014;12.052;2023-04-01T16:44:44;1.27;;;1.27;;
19038;SDS011;9652;49.014;12.052;2023-04-01T16:47:19;1.00;;;1.00;;
19038;SDS011;9652;49.014;12.052;2023-04-01T16:49:54;1.10;;;1.10;;
19038;SDS011;9652;49.014;12.052;2023-04-01T16:52:36;1.40;;;1.30;;
19038;SDS011;9652;49.014;12.052;2023-04-01T16:55:24;1.37;;;1.37;;
19038;SDS011;9652;49.014;12.052;2023-04-01T16:58:18;1.20;;;1.20;;
19038;SDS011;9652;49.014;12.052;2023-04-01T17:00:52;1.37;;;1.27;;
19038;SDS011;9652;49.014;12.052;2023-04-01T17:03:29;1.20;;;1.20;;
19038;SDS011;9652;49.014;12.052;2023-04-01T17:06:07;1.30;;;1.30;;
19038;SDS011;9652;49.014;12.052;2023-04-01T17:08:54;1.27;;;1.27;;
19038;SDS011;9652;49.014;12.052;2023-04-01T17:11:53;1.23;;;1.23;;
19038;SDS011;9652;49.014;12.052;2023-04-01T17:14:36;1.40;;;1.40;;
19038;SDS011;9652;49.014;12.052;2023-04-01T17:17:20;1.30;;;1.30;;
19038;SDS011;9652;49.014;12.052;2023-04-01T17:20:05;1.47;;;1.47;;
19038;SDS011;9652;49.014;12.052;2023-04-01T17:22:49;1.33;;;1.33;;
19038;SDS011;9652;49.014;12.052;2023-04-01T17:25:29;1.40;;;1.30;;
19038;SDS011;9652;49.014;12.052;2023-04-01T17:28:16;1.27;;;1.27;;
19038;SDS011;9652;49.014;12.052;2023-04-01T17:30:59;1.43;;;1.43;;
19038;SDS011;9652;49.014;12.052;2023-04-01T17:33:41;1.40;;;1.30;;
19038;SDS011;9652;49.014;12.052;2023-04-01T17:36:31;1.80;;;1.70;;
19038;SDS011;9652;49.014;12.052;2023-04-01T17:39:21;1.33;;;1.33;;
19038;SDS011;9652;49.014;12.052;2023-04-01T17:42:14;1.77;;;1.67;;
19038;SDS011;9652;49.014;12.052;2023-04-01T17:44:49;1.40;;;1.40;;
19038;SDS011;9652;49.014;12.052;2023-04-01T17:47:31;1.47;;;1.37;;
19038;SDS011;9652;49.014;12.052;2023-04-01T17:50:20;1.40;;;1.40;;
19038;SDS011;9652;49.014;12.052;2023-04-01T17:52:57;1.90;;;1.80;;
19038;SDS011;9652;49.014;12.052;2023-04-01T17:55:46;1.40;;;1.40;;
19038;SDS011;9652;49.014;12.052;2023-04-01T17:58:28;1.70;;;1.60;;